Time;durP1;ratioP1;P1;durP2;ratioP2;P2;SDS_P1;SDS_P2;PMS_P1;PMS_P2;Temp;Humidity;BMP_temperature;BMP_pressure;BME280_temperature;BME280_humidity;BME280_pressure;Samples;Min_cycle;Max_cycle;Signal;HPM_P1;HPM_P2
2021/11/08 00:02:06;;;;;;;13.25;3.83;;;;;;;10.60;61.57;101352.69;4880055;29;20089;-90
2021/11/08 00:04:34;;;;;;;19.92;4.78;;;;;;;10.60;61.41;101357.94;4869402;29;20105;-90
2021/11/08 00:07:01;;;;;;;12.48;2.50;;;;;;;10.59;61.51;101358.06;4861470;29;20022;-90
2021/11/08 00:09:26;;;;;;;11.38;2.97;;;;;;;10.54;61.21;101357.44;4871373;29;20034;-90
2021/11/08 00:11:52;;;;;;;11.88;3.72;;;;;;;10.53;61.06;101361.84;4861596;29;20033;-90
2021/11/08 00:14:20;;;;;;;9.05;2.40;;;;;;;10.48;61.69;101348.09;4861632;29;20029;-90
2021/11/08 00:21:56;;;;;;;7.32;2.10;;;;;;;10.51;61.65;101363.69;4880093;29;20515;-90
2021/11/08 00:24:27;;;;;;;9.50;2.72;;;;;;;10.50;61.83;101373.38;4871115;29;20064;-90
2021/11/08 00:26:52;;;;;;;11.27;2.00;;;;;;;10.51;61.67;101369.78;4879139;29;20033;-89
2021/11/08 00:29:18;;;;;;;12.15;2.70;;;;;;;10.36;61.36;101369.75;4866341;29;20103;-90
2021/11/08 00:31:44;;;;;;;17.42;3.17;;;;;;;10.39;61.78;101374.84;4866484;29;20033;-90
2021/11/08 00:34:10;;;;;;;7.97;2.75;;;;;;;10.41;61.51;101367.75;4884312;29;20029;-90
2021/11/08 00:36:35;;;;;;;10.35;2.50;;;;;;;10.43;61.18;101365.88;4884115;29;20036;-90
2021/11/08 00:39:02;;;;;;;9.68;2.42;;;;;;;10.39;61.37;101377.47;4871320;29;20043;-90
2021/11/08 00:41:28;;;;;;;5.75;2.40;;;;;;;10.32;61.12;101380.38;4882748;29;20047;-91
2021/11/08 00:43:53;;;;;;;14.65;3.35;;;;;;;10.28;61.27;101378.81;4865501;29;20030;-90
2021/11/08 00:46:19;;;;;;;9.18;2.70;;;;;;;10.26;61.60;101371.97;4861625;29;20028;-90
2021/11/08 00:48:45;;;;;;;6.63;2.20;;;;;;;10.20;61.19;101373.13;4862761;29;20108;-90
2021/11/08 00:51:10;;;;;;;12.32;2.60;;;;;;;10.17;61.75;101380.28;4861325;29;20113;-90
2021/11/08 00:53:37;;;;;;;10.05;2.28;;;;;;;10.11;61.69;101373.56;4866341;29;20396;-90
2021/11/08 00:56:06;;;;;;;13.55;2.78;;;;;;;10.10;61.89;101370.09;4860187;29;20029;-90
2021/11/08 00:58:38;;;;;;;12.32;3.22;;;;;;;10.12;61.48;101368.25;4860991;29;20048;-90
2021/11/08 01:01:06;;;;;;;10.10;2.33;;;;;;;10.16;62.04;101368.94;4860723;29;20029;-90
2021/11/08 01:03:35;;;;;;;7.50;1.92;;;;;;;10.15;61.56;101372.53;4877422;29;20464;-90
2021/11/08 01:06:01;;;;;;;8.57;2.67;;;;;;;10.11;61.96;101386.69;4879425;29;20025;-90
2021/11/08 01:08:27;;;;;;;13.75;3.08;;;;;;;10.01;61.46;101374.97;4863483;29;20041;-90
2021/11/08 01:10:52;;;;;;;11.63;3.10;;;;;;;10.05;61.87;101377.38;4860424;29;20029;-90
2021/11/08 01:13:18;;;;;;;17.33;3.25;;;;;;;9.98;61.56;101390.88;4874721;29;20037;-90
2021/11/08 01:15:43;;;;;;;9.25;2.83;;;;;;;10.00;61.58;101392.50;4879379;29;20108;-90
2021/11/08 01:18:09;;;;;;;7.20;2.22;;;;;;;9.98;61.47;101386.47;4878727;29;20033;-90
2021/11/08 01:20:35;;;;;;;16.02;2.55;;;;;;;9.96;61.69;101387.47;4880251;29;20073;-90
2021/11/08 01:23:04;;;;;;;10.25;3.05;;;;;;;9.96;61.77;101392.72;4879449;29;20415;-90
2021/11/08 01:25:33;;;;;;;10.32;2.75;;;;;;;9.92;61.35;101398.13;4879661;29;20119;-90
2021/11/08 01:28:02;;;;;;;10.73;2.67;;;;;;;9.93;61.91;101396.34;4862313;29;20033;-90
2021/11/08 01:30:28;;;;;;;7.72;2.40;;;;;;;9.92;61.82;101385.00;4860506;29;20052;-90
2021/11/08 01:35:31;;;;;;;6.95;2.08;;;;;;;9.98;62.31;101386.47;4860941;29;20483;-90
2021/11/08 01:38:42;;;;;;;9.95;2.55;;;;;;;10.00;61.85;101391.66;4868351;29;20030;-90
2021/11/08 01:40:48;;;;;;;13.35;3.13;;;;;;;9.90;61.55;101399.13;4855088;29;20045;-90
2021/11/08 01:43:14;;;;;;;9.23;2.53;;;;;;;9.84;61.77;101389.78;4860455;29;20033;-89
2021/11/08 01:45:40;;;;;;;8.20;2.78;;;;;;;9.81;61.25;101387.28;4865889;29;20032;-90
2021/11/08 01:48:07;;;;;;;6.68;2.22;;;;;;;9.81;61.28;101395.16;4879227;29;20054;-90
2021/11/08 01:50:33;;;;;;;10.82;2.58;;;;;;;9.78;61.09;101387.47;4879300;29;20040;-90
2021/11/08 01:52:59;;;;;;;9.90;2.25;;;;;;;9.78;61.30;101382.22;4878949;29;20377;-90
2021/11/08 01:55:26;;;;;;;6.85;2.35;;;;;;;9.80;62.00;101392.63;4861989;29;20101;-90
2021/11/08 01:57:51;;;;;;;10.60;2.15;;;;;;;9.81;61.53;101399.56;4871714;29;20357;-90
2021/11/08 02:00:18;;;;;;;9.43;3.00;;;;;;;9.81;62.15;101389.06;4879007;29;20116;-90
2021/11/08 02:02:44;;;;;;;10.55;2.20;;;;;;;9.82;61.96;101389.00;4879345;29;20033;-90
2021/11/08 02:05:09;;;;;;;10.82;2.70;;;;;;;9.72;62.54;101396.47;4879373;29;20051;-90
2021/11/08 02:07:35;;;;;;;14.27;2.90;;;;;;;9.73;62.61;101397.31;4861912;29;20034;-90
2021/11/08 02:10:03;;;;;;;19.02;3.20;;;;;;;9.68;62.92;101391.47;4862333;29;20029;-90
2021/11/08 02:12:29;;;;;;;16.25;3.42;;;;;;;9.64;64.55;101384.66;4865403;29;20089;-90
2021/11/08 02:14:54;;;;;;;18.85;3.55;;;;;;;9.72;64.79;101379.91;4881034;29;20029;-89
2021/11/08 02:17:21;;;;;;;21.30;3.42;;;;;;;9.87;64.89;101384.41;4878318;29;20025;-90
2021/11/08 02:19:47;;;;;;;16.50;3.10;;;;;;;9.93;64.96;101384.09;4862029;29;20033;-89
2021/11/08 02:22:12;;;;;;;12.25;2.22;;;;;;;10.06;64.23;101372.97;4862977;29;20116;-89
2021/11/08 02:24:41;;;;;;;10.40;2.05;;;;;;;10.08;64.08;101365.88;4863064;29;20388;-89
2021/11/08 02:27:07;;;;;;;10.73;2.10;;;;;;;10.12;64.08;101363.00;4880565;29;20028;-89
2021/11/08 02:29:32;;;;;;;9.75;2.05;;;;;;;10.09;63.92;101349.19;4881321;29;20033;-89
2021/11/08 02:31:59;;;;;;;8.98;1.95;;;;;;;10.14;63.60;101365.56;4863272;29;20443;-89
2021/11/08 02:34:25;;;;;;;12.45;2.05;;;;;;;10.16;63.58;101360.25;4881424;29;20056;-89
2021/11/08 02:36:50;;;;;;;11.75;2.35;;;;;;;10.21;64.09;101359.09;4865290;29;20057;-89
2021/11/08 02:39:26;;;;;;;9.73;1.83;;;;;;;10.24;63.66;101361.53;4880540;29;20440;-89
2021/11/08 02:41:52;;;;;;;11.23;2.28;;;;;;;10.27;63.98;101350.88;4866727;29;20105;-89
2021/11/08 02:44:18;;;;;;;13.38;2.38;;;;;;;10.29;63.56;101351.66;4881283;29;20116;-89
2021/11/08 02:46:43;;;;;;;9.77;1.73;;;;;;;10.29;63.35;101335.91;4867515;29;20055;-89
2021/11/08 02:49:12;;;;;;;9.85;1.63;;;;;;;10.37;63.72;101337.28;4867533;29;20436;-89
2021/11/08 02:51:44;;;;;;;11.63;2.13;;;;;;;10.37;63.25;101345.16;4881944;29;20036;-88
2021/11/08 02:54:23;;;;;;;12.15;1.48;;;;;;;10.35;63.22;101340.03;4877773;29;20061;-89
2021/11/08 02:56:49;;;;;;;12.27;2.03;;;;;;;10.35;63.12;101357.53;4865484;29;20052;-88
2021/11/08 02:59:14;;;;;;;6.97;1.90;;;;;;;10.37;62.94;101345.16;4869715;29;20025;-88
2021/11/08 03:01:40;;;;;;;11.50;2.20;;;;;;;10.35;63.17;101347.91;4881648;29;20033;-89
2021/11/08 03:04:12;;;;;;;7.53;1.92;;;;;;;10.34;63.01;101340.09;4863749;29;20142;-89
2021/11/08 03:06:38;;;;;;;8.27;2.35;;;;;;;10.31;63.21;101341.97;4862868;29;20037;-89
2021/11/08 03:09:12;;;;;;;9.75;2.30;;;;;;;10.31;63.13;101341.97;4875796;29;20026;-89
2021/11/08 03:11:38;;;;;;;7.90;2.13;;;;;;;10.26;62.81;101338.69;4862678;29;20029;-89
2021/11/08 03:14:06;;;;;;;5.97;1.63;;;;;;;10.24;62.37;101335.28;4871369;29;20576;-88
2021/11/08 03:19:01;;;;;;;12.77;2.70;;;;;;;10.25;62.48;101331.75;4877220;29;20647;-89
2021/11/08 03:21:28;;;;;;;15.30;2.80;;;;;;;10.24;62.84;101324.78;4880663;29;20411;-89
2021/11/08 03:23:58;;;;;;;12.68;2.28;;;;;;;10.23;62.63;101316.97;4866833;29;20034;-89
2021/11/08 03:29:10;;;;;;;10.20;2.08;;;;;;;10.17;62.35;101318.19;4881173;29;20085;-89
2021/11/08 03:31:36;;;;;;;8.52;2.05;;;;;;;10.12;62.70;101322.81;4867409;29;20025;-89
2021/11/08 03:34:02;;;;;;;8.80;1.83;;;;;;;10.10;62.65;101327.28;4862310;29;20025;-89
2021/11/08 03:36:28;;;;;;;12.13;2.03;;;;;;;10.13;62.62;101327.97;4870099;29;20017;-89
2021/11/08 03:38:53;;;;;;;11.15;2.38;;;;;;;10.08;62.43;101329.97;4876517;29;20037;-89
2021/11/08 03:41:19;;;;;;;10.68;2.15;;;;;;;10.03;62.38;101329.38;4862020;29;20034;-89
2021/11/08 03:43:44;;;;;;;9.68;2.55;;;;;;;10.03;62.77;101332.00;4864249;29;20468;-89
2021/11/08 03:46:09;;;;;;;13.40;2.08;;;;;;;10.01;62.71;101338.22;4874332;29;20048;-89
2021/11/08 03:48:35;;;;;;;9.60;1.95;;;;;;;9.97;62.63;101341.94;4862391;29;20037;-89
2021/11/08 03:51:01;;;;;;;8.50;1.70;;;;;;;9.96;62.81;101332.38;4880131;29;20037;-89
2021/11/08 03:53:27;;;;;;;10.60;1.92;;;;;;;10.00;62.51;101336.56;4878840;29;20412;-89
2021/11/08 03:55:53;;;;;;;9.45;1.90;;;;;;;9.97;62.54;101336.69;4862109;29;20038;-89
2021/11/08 03:58:19;;;;;;;5.05;1.55;;;;;;;9.94;62.72;101335.09;4861924;29;20055;-89
2021/11/08 04:00:45;;;;;;;8.77;1.83;;;;;;;9.92;62.66;101329.91;4876684;29;20040;-89
2021/11/08 04:03:12;;;;;;;11.38;1.80;;;;;;;9.88;62.71;101332.78;4871287;29;20034;-90
2021/11/08 04:05:39;;;;;;;11.90;2.28;;;;;;;9.83;62.75;101329.53;4860486;29;20104;-89
2021/11/08 04:08:09;;;;;;;9.95;2.08;;;;;;;9.84;62.45;101332.06;4868689;29;20036;-89
2021/11/08 04:10:36;;;;;;;13.95;2.38;;;;;;;9.83;63.04;101332.13;4881021;29;20077;-89
2021/11/08 04:13:04;;;;;;;9.52;2.03;;;;;;;9.85;62.66;101340.78;4873280;29;20033;-89
2021/11/08 04:15:35;;;;;;;7.50;2.08;;;;;;;9.85;62.44;101339.03;4861535;29;20064;-89
2021/11/08 04:18:01;;;;;;;10.30;2.15;;;;;;;9.86;63.10;101345.13;4867866;29;20029;-89
2021/11/08 04:20:26;;;;;;;13.40;2.60;;;;;;;9.87;63.55;101342.44;4880175;29;20029;-89
2021/11/08 04:22:54;;;;;;;6.80;2.17;;;;;;;9.92;63.42;101337.78;4874054;29;20040;-88
2021/11/08 04:25:23;;;;;;;7.05;2.20;;;;;;;9.93;63.06;101339.50;4862026;29;20030;-88
2021/11/08 04:27:49;;;;;;;10.30;2.42;;;;;;;9.93;63.08;101331.63;4869480;29;20060;-91
2021/11/08 04:30:16;;;;;;;14.68;2.30;;;;;;;10.00;63.03;101331.31;4866729;29;20459;-89
2021/11/08 04:35:27;;;;;;;5.35;1.88;;;;;;;10.00;63.38;101332.16;4883621;29;20029;-89
2021/11/08 04:38:09;;;;;;;9.02;3.13;;;;;;;9.97;63.64;101326.19;4878410;29;20041;-89
2021/11/08 05:31:00;;;;;;;7.57;2.63;;;;;;;10.26;63.76;101324.72;4860986;29;20076;-89
2021/11/08 05:33:26;;;;;;;7.55;2.35;;;;;;;10.31;63.93;101320.13;4878873;29;20035;-89
2021/11/08 05:35:52;;;;;;;6.85;2.22;;;;;;;10.32;64.22;101309.50;4876532;29;20107;-89
2021/11/08 05:38:17;;;;;;;7.65;2.50;;;;;;;10.43;64.04;101313.38;4864234;29;20870;-89
2021/11/08 05:40:42;;;;;;;14.32;3.45;;;;;;;10.43;64.32;101308.13;4863992;29;20033;-88
2021/11/08 05:43:08;;;;;;;7.82;2.95;;;;;;;10.51;64.14;101303.31;4879825;29;20369;-88
2021/11/08 05:45:35;;;;;;;11.60;2.78;;;;;;;10.54;64.21;101308.38;4882633;29;20436;-89
2021/11/08 05:48:05;;;;;;;8.95;2.42;;;;;;;10.52;64.25;101305.84;4882227;29;20081;-89
2021/11/08 05:50:31;;;;;;;13.18;3.42;;;;;;;10.50;63.55;101304.22;4882510;29;20488;-88
2021/11/08 05:52:57;;;;;;;5.78;2.90;;;;;;;10.47;63.98;101307.03;4869857;29;20483;-89
2021/11/08 05:58:15;;;;;;;13.45;3.53;;;;;;;10.47;63.80;101310.50;4880649;29;20361;-89
2021/11/08 06:49:50;;;;;;;12.10;3.55;;;;;;;10.43;64.24;101300.25;4849667;29;20452;-89
2021/11/08 06:52:16;;;;;;;14.18;2.53;;;;;;;10.56;64.38;101303.06;4871287;29;20388;-89
2021/11/08 06:54:47;;;;;;;10.15;3.38;;;;;;;10.61;64.25;101307.13;4880516;29;20142;-89
2021/11/08 06:57:16;;;;;;;10.05;3.05;;;;;;;10.73;64.17;101307.41;4865063;29;20085;-89
2021/11/08 06:59:46;;;;;;;7.32;3.28;;;;;;;10.86;64.05;101308.41;4875252;29;20591;-89
2021/11/08 07:02:13;;;;;;;8.30;3.20;;;;;;;10.97;64.12;101305.22;4865557;29;20061;-89
2021/11/08 07:04:39;;;;;;;12.43;3.25;;;;;;;11.01;64.30;101314.63;4869622;29;20029;-89
2021/11/08 07:07:06;;;;;;;9.35;2.92;;;;;;;10.94;64.87;101306.25;4881086;29;20025;-88
2021/11/08 07:09:32;;;;;;;12.60;3.35;;;;;;;11.06;64.63;101310.81;4866882;29;20036;-89
2021/11/08 07:11:58;;;;;;;8.40;2.60;;;;;;;11.19;64.56;101318.84;4880673;29;20499;-89
2021/11/08 07:14:23;;;;;;;10.50;2.95;;;;;;;11.26;64.60;101320.22;4867797;29;20030;-88
2021/11/08 07:16:49;;;;;;;12.02;3.50;;;;;;;11.31;64.40;101323.44;4872924;29;20396;-89
2021/11/08 07:19:16;;;;;;;10.70;3.25;;;;;;;11.39;64.43;101322.97;4869083;29;20069;-89
2021/11/08 07:21:41;;;;;;;11.52;3.45;;;;;;;11.45;64.26;101325.28;4872339;29;20033;-89
2021/11/08 07:24:07;;;;;;;9.40;3.00;;;;;;;11.46;64.43;101326.97;4879764;29;20037;-89
2021/11/08 07:26:33;;;;;;;6.78;2.78;;;;;;;11.52;64.62;101323.97;4866371;29;20093;-89
2021/11/08 07:28:58;;;;;;;9.50;3.58;;;;;;;11.60;64.61;101322.69;4877843;29;20031;-89
2021/11/08 07:31:24;;;;;;;9.65;3.25;;;;;;;11.67;64.71;101334.53;4880798;29;20040;-92
2021/11/08 07:33:49;;;;;;;7.88;3.28;;;;;;;11.73;64.72;101333.34;4878702;29;20472;-93
2021/11/08 07:36:15;;;;;;;13.75;3.40;;;;;;;11.82;64.66;101333.66;4880580;29;20383;-93
2021/11/08 07:38:40;;;;;;;10.65;3.20;;;;;;;11.88;64.53;101341.19;4883301;29;20069;-94
2021/11/08 07:41:09;;;;;;;9.05;3.42;;;;;;;11.94;64.70;101333.91;4880544;29;20088;-89
2021/11/08 07:43:35;;;;;;;11.10;3.38;;;;;;;12.01;64.75;101333.47;4865096;29;20045;-89
2021/11/08 07:46:02;;;;;;;18.08;3.20;;;;;;;12.01;64.56;101351.06;4866387;29;20026;-89
2021/11/08 07:48:27;;;;;;;11.68;3.72;;;;;;;12.02;64.83;101339.56;4858873;29;20033;-89
2021/11/08 07:50:53;;;;;;;10.13;3.17;;;;;;;12.09;64.52;101340.91;4865418;29;20054;-90
2021/11/08 07:53:18;;;;;;;11.90;3.67;;;;;;;12.14;64.80;101341.47;4879310;29;20038;-91
2021/11/08 07:55:44;;;;;;;9.57;2.97;;;;;;;12.21;64.50;101349.88;4877600;29;20037;-91
2021/11/08 07:58:10;;;;;;;9.68;3.53;;;;;;;12.26;64.53;101348.66;4883894;29;20030;-92
2021/11/08 08:00:37;;;;;;;18.70;4.28;;;;;;;12.33;64.69;101343.03;4883748;29;20076;-91
2021/11/08 08:03:03;;;;;;;13.80;3.72;;;;;;;12.33;64.64;101343.03;4884416;29;20068;-92
2021/11/08 08:05:30;;;;;;;8.68;3.03;;;;;;;12.30;64.77;101344.91;4883207;29;20029;-92
2021/11/08 08:07:55;;;;;;;12.55;4.03;;;;;;;12.43;64.41;101337.09;4877943;29;20029;-91
2021/11/08 08:10:22;;;;;;;10.98;3.42;;;;;;;12.48;64.58;101342.09;4882682;29;20018;-95
2021/11/08 08:12:47;;;;;;;14.60;3.50;;;;;;;12.53;64.31;101329.47;4883967;29;20028;-93
2021/11/08 08:15:13;;;;;;;11.70;3.13;;;;;;;12.59;64.42;101354.59;4882874;29;20041;-92
2021/11/08 08:17:39;;;;;;;11.40;3.17;;;;;;;12.61;64.31;101342.19;4882458;29;20010;-94
2021/11/08 08:20:08;;;;;;;12.70;3.42;;;;;;;12.63;64.49;101346.41;4880405;29;20058;-90
2021/11/08 08:22:34;;;;;;;12.52;3.53;;;;;;;12.74;64.17;101342.25;4879736;29;20049;-92
2021/11/08 08:25:00;;;;;;;13.95;3.90;;;;;;;12.80;63.82;101336.63;4879280;29;20017;-92
2021/11/08 08:27:25;;;;;;;15.85;4.10;;;;;;;12.96;63.95;101342.63;4877353;29;20048;-93
2021/11/08 08:29:51;;;;;;;18.90;4.43;;;;;;;13.01;63.53;101347.59;4882466;29;20033;-92
2021/11/08 08:32:18;;;;;;;15.35;3.00;;;;;;;13.10;63.39;101344.38;4881728;29;20025;-89
2021/11/08 08:34:44;;;;;;;12.95;2.95;;;;;;;13.20;63.48;101342.84;4886569;29;20107;-91
2021/11/08 08:37:09;;;;;;;7.97;2.33;;;;;;;13.33;63.25;101345.59;4869116;29;20041;-91
2021/11/08 08:39:35;;;;;;;14.48;3.03;;;;;;;13.43;62.71;101332.66;4864550;29;20029;-90
2021/11/08 08:42:00;;;;;;;14.95;2.85;;;;;;;13.58;62.68;101338.69;4866622;29;20101;-90
2021/11/08 08:44:26;;;;;;;11.18;3.05;;;;;;;13.70;62.32;101332.59;4866026;29;20081;-91
2021/11/08 08:46:51;;;;;;;16.38;3.10;;;;;;;13.81;62.34;101334.53;4862453;29;20033;-92
2021/11/08 08:49:18;;;;;;;17.08;3.65;;;;;;;13.85;61.80;101331.59;4871276;29;20032;-91
2021/11/08 08:51:43;;;;;;;15.23;3.58;;;;;;;13.87;61.80;101331.50;4879610;29;20024;-91
2021/11/08 08:54:10;;;;;;;15.60;3.50;;;;;;;13.91;62.04;101332.97;4879702;29;20128;-90
2021/11/08 08:56:36;;;;;;;19.42;3.42;;;;;;;13.89;60.83;101333.06;4862361;29;20086;-91
2021/11/08 08:59:03;;;;;;;22.00;4.75;;;;;;;13.91;61.20;101321.56;4861792;29;20045;-91
2021/11/08 09:01:29;;;;;;;16.67;3.88;;;;;;;13.98;61.17;101325.47;4866952;29;20045;-92
2021/11/08 09:03:56;;;;;;;10.07;3.40;;;;;;;13.96;60.72;101322.09;4867474;29;20161;-92
2021/11/08 09:06:23;;;;;;;15.63;3.67;;;;;;;14.09;60.90;101320.31;4867578;29;20397;-92
2021/11/08 09:08:49;;;;;;;12.80;2.88;;;;;;;14.07;60.26;101316.94;4863121;29;20140;-92
2021/11/08 09:11:15;;;;;;;12.82;3.85;;;;;;;14.04;60.75;101320.66;4872218;29;20543;-91
2021/11/08 09:13:40;;;;;;;17.40;3.33;;;;;;;14.05;60.80;101322.31;4865030;29;20056;-91
2021/11/08 09:16:11;;;;;;;12.10;3.05;;;;;;;14.15;60.70;101333.09;4866316;29;20034;-92
2021/11/08 09:18:51;;;;;;;19.95;4.40;;;;;;;14.24;60.53;101324.56;4867896;29;20032;-91
2021/11/08 09:21:18;;;;;;;14.50;3.08;;;;;;;14.38;60.14;101322.78;4851822;29;20128;-92
2021/11/08 09:23:45;;;;;;;13.73;3.00;;;;;;;14.37;60.27;101321.91;4863984;29;20117;-92
2021/11/08 09:26:12;;;;;;;16.10;4.03;;;;;;;14.48;60.20;101323.81;4862285;29;20053;-93
2021/11/08 09:28:37;;;;;;;15.13;3.95;;;;;;;14.56;59.82;101310.06;4866531;29;20048;-94
2021/11/08 09:31:03;;;;;;;11.18;3.55;;;;;;;14.71;60.16;101322.25;4867320;29;20033;-93
2021/11/08 09:33:29;;;;;;;15.23;4.15;;;;;;;14.81;59.80;101319.75;4872771;29;20036;-90
2021/11/08 09:36:00;;;;;;;18.42;4.25;;;;;;;14.88;59.33;101313.09;4869420;29;20531;-92
2021/11/08 09:38:26;;;;;;;;;;;;;;;15.11;58.61;101315.88;4879224;29;20060;-94
2021/11/08 09:40:51;;;;;;;15.93;3.22;;;;;;;15.22;58.91;101310.63;4865213;29;19988;-93
2021/11/08 09:43:22;;;;;;;19.70;4.05;;;;;;;15.44;58.50;101312.53;4872387;29;20041;-93
2021/11/08 09:45:48;;;;;;;25.02;4.30;;;;;;;15.65;57.95;101320.69;4860229;29;20445;-94
2021/11/08 09:48:13;;;;;;;16.88;3.60;;;;;;;15.70;57.84;101320.34;4868924;29;20033;-92
2021/11/08 09:50:43;;;;;;;14.10;2.83;;;;;;;15.91;57.78;101320.56;4877928;29;20105;-93
2021/11/08 09:53:09;;;;;;;16.40;3.45;;;;;;;15.88;57.21;101321.66;4859504;29;20469;-93
2021/11/08 09:55:35;;;;;;;24.15;4.20;;;;;;;15.86;57.63;101318.28;4871668;29;20048;-92
2021/11/08 09:58:01;;;;;;;17.42;3.60;;;;;;;16.06;56.39;101324.72;4860148;29;20571;-93
2021/11/08 10:00:52;;;;;;;12.35;3.42;;;;;;;15.82;57.43;101322.97;4868051;29;20048;-93
2021/11/08 10:03:24;;;;;;;15.82;3.45;;;;;;;15.93;57.12;101329.25;4878884;29;20037;-93
2021/11/08 10:05:52;;;;;;;19.83;3.85;;;;;;;15.87;56.74;101327.91;4867389;29;20030;-95
2021/11/08 10:08:22;;;;;;;16.73;3.67;;;;;;;15.90;57.12;101330.34;4862897;29;20025;-93
2021/11/08 10:10:50;;;;;;;14.88;3.65;;;;;;;15.86;56.96;101324.41;4863077;29;20029;-96
2021/11/08 10:13:24;;;;;;;17.35;4.38;;;;;;;15.97;57.10;101322.75;4860709;29;20064;-95
2021/11/08 10:15:53;;;;;;;15.52;3.35;;;;;;;15.95;57.42;101320.22;4867652;29;20121;-95
2021/11/08 10:18:20;;;;;;;15.35;3.08;;;;;;;16.03;56.93;101325.78;4859966;29;20057;-93
2021/11/08 10:20:52;;;;;;;21.45;3.55;;;;;;;16.04;57.31;101334.59;4866262;29;20571;-94
2021/11/08 10:23:21;;;;;;;20.92;3.08;;;;;;;16.16;57.25;101330.16;4868477;29;20461;-96
2021/11/08 10:25:47;;;;;;;19.58;3.13;;;;;;;16.10;57.30;101326.16;4863727;29;20045;-96
2021/11/08 10:28:20;;;;;;;20.77;3.63;;;;;;;16.31;56.54;101323.66;4867253;29;20026;-93
2021/11/08 10:30:47;;;;;;;17.00;4.03;;;;;;;16.11;57.42;101319.03;4871002;29;20036;-96
2021/11/08 10:33:18;;;;;;;15.63;3.47;;;;;;;16.22;57.04;101319.91;4869399;29;20050;-96
2021/11/08 10:35:55;;;;;;;17.05;3.90;;;;;;;16.32;57.00;101317.38;4875106;29;20044;-90
2021/11/08 10:38:28;;;;;;;18.38;3.13;;;;;;;16.20;57.43;101315.69;4870681;29;20032;-92
2021/11/08 10:41:02;;;;;;;16.90;3.70;;;;;;;16.22;57.57;101316.41;4873505;29;20053;-94
2021/11/08 10:43:30;;;;;;;18.05;3.28;;;;;;;16.18;58.23;101312.31;4865920;29;20041;-94
2021/11/08 10:45:59;;;;;;;16.35;3.60;;;;;;;16.29;57.76;101304.41;4877386;29;20036;-95
2021/11/08 10:48:28;;;;;;;17.00;2.75;;;;;;;16.31;57.56;101305.13;4863992;29;20109;-94
2021/11/08 10:50:56;;;;;;;12.40;2.95;;;;;;;16.43;57.49;101305.97;4864117;29;20384;-94
2021/11/08 10:53:22;;;;;;;11.43;2.85;;;;;;;16.50;57.21;101298.38;4878017;29;20029;-95
2021/11/08 10:55:50;;;;;;;14.13;2.65;;;;;;;16.61;56.96;101301.84;4871305;29;20029;-95
2021/11/08 10:58:16;;;;;;;11.10;2.55;;;;;;;16.57;57.52;101303.06;4867716;29;20051;-95
2021/11/08 11:01:01;;;;;;;19.98;3.78;;;;;;;16.51;57.88;101300.91;4872404;29;20499;-95
2021/11/08 11:03:26;;;;;;;14.77;2.80;;;;;;;16.51;58.08;101302.69;4862374;29;20120;-95
2021/11/08 11:06:10;;;;;;;13.88;3.95;;;;;;;16.76;57.02;101302.44;4874085;29;20071;-95
2021/11/08 11:08:47;;;;;;;15.88;3.20;;;;;;;16.78;57.24;101310.28;4870114;29;20044;-95
2021/11/08 11:11:14;;;;;;;18.77;3.63;;;;;;;16.73;57.10;101310.66;4867482;29;20060;-95
2021/11/08 11:13:52;;;;;;;13.68;2.88;;;;;;;16.73;57.17;101307.16;4870711;29;20101;-95
2021/11/08 11:16:31;;;;;;;16.85;3.30;;;;;;;16.82;57.23;101314.38;4870544;29;20033;-95
2021/11/08 11:19:02;;;;;;;22.42;5.80;;;;;;;16.84;57.26;101299.19;4864791;29;20120;-95
2021/11/08 11:21:28;;;;;;;12.80;3.95;;;;;;;16.98;57.17;101309.56;4862538;29;20493;-93
2021/11/08 11:24:00;;;;;;;15.13;3.50;;;;;;;16.94;56.91;101301.94;4861397;29;20042;-95
2021/11/08 11:26:29;;;;;;;17.98;3.42;;;;;;;16.83;57.19;101311.63;4865790;29;20033;-96
2021/11/08 11:28:58;;;;;;;11.75;3.22;;;;;;;16.96;57.06;101300.03;5157248;23;20019;-96
2021/11/08 11:31:26;;;;;;;11.85;3.25;;;;;;;16.85;56.87;101300.91;4878072;29;20052;-96
2021/11/08 11:33:54;;;;;;;12.05;3.08;;;;;;;16.90;57.35;101297.88;4872681;29;20026;-94
2021/11/08 11:36:22;;;;;;;17.05;3.45;;;;;;;16.85;57.96;101306.19;4864132;29;20437;-94
2021/11/08 11:39:02;;;;;;;10.10;2.67;;;;;;;17.04;57.22;101306.41;4868533;29;20053;-95
2021/11/08 11:41:30;;;;;;;17.85;3.00;;;;;;;17.08;57.36;101306.16;4864426;29;20075;-95
2021/11/08 11:44:04;;;;;;;13.70;4.38;;;;;;;17.16;56.02;101309.88;4868243;29;20120;-95
2021/11/08 11:46:57;;;;;;;14.00;3.25;;;;;;;17.14;57.04;101301.19;4865630;29;20026;-94
2021/11/08 11:49:23;;;;;;;9.98;2.47;;;;;;;17.20;56.91;101300.69;4877572;29;20411;-95
2021/11/08 11:51:52;;;;;;;14.73;3.85;;;;;;;17.23;57.08;101294.28;4880880;29;20029;-94
2021/11/08 11:54:22;;;;;;;19.15;3.60;;;;;;;17.19;56.99;101303.47;4880240;29;20312;-95
2021/11/08 11:56:52;;;;;;;14.85;3.78;;;;;;;17.37;57.07;101290.50;4855981;29;20057;-96
2021/11/08 11:59:18;;;;;;;24.35;4.00;;;;;;;17.35;57.04;101293.28;4852845;29;20094;-96
2021/11/08 12:01:45;;;;;;;23.60;8.38;;;;;;;17.40;56.74;101301.72;4858548;29;20033;-96
2021/11/08 12:04:11;;;;;;;15.43;4.45;;;;;;;17.50;56.90;101295.66;4859273;29;20514;-95
2021/11/08 12:06:40;;;;;;;15.75;3.35;;;;;;;17.58;56.81;101299.34;4861774;29;20105;-96
2021/11/08 12:09:08;;;;;;;12.93;4.20;;;;;;;17.52;56.64;101293.72;4855677;29;20040;-96
2021/11/08 12:11:40;;;;;;;13.20;2.97;;;;;;;17.38;57.65;101298.34;4855419;29;20026;-95
2021/11/08 12:14:15;;;;;;;10.45;3.03;;;;;;;17.62;56.86;101295.44;4865902;29;20037;-95
2021/11/08 12:17:03;;;;;;;13.23;3.15;;;;;;;17.69;56.56;101290.44;4856809;29;20125;-94
2021/11/08 12:19:33;;;;;;;14.57;3.47;;;;;;;18.15;55.37;101297.22;4867787;29;20034;-96
2021/11/08 12:22:20;;;;;;;17.70;3.83;;;;;;;17.90;56.63;101292.31;4866981;29;20037;-96
2021/11/08 12:25:03;;;;;;;9.98;2.83;;;;;;;18.11;56.27;101286.97;4863556;29;20162;-96
2021/11/08 12:27:33;;;;;;;12.35;2.78;;;;;;;18.39;55.08;101277.47;4855551;29;20036;-96
2021/11/08 12:29:59;;;;;;;6.15;1.95;;;;;;;18.68;54.87;101277.56;4860975;29;20040;-96
2021/11/08 12:32:24;;;;;;;13.15;2.90;;;;;;;18.63;54.56;101269.97;4863060;29;20033;-96
2021/11/08 12:34:54;;;;;;;17.48;3.00;;;;;;;18.51;55.30;101273.72;4853141;29;20037;-96
2021/11/08 12:37:32;;;;;;;12.00;1.95;;;;;;;18.67;55.19;101270.56;4858043;29;20034;-94
2021/11/08 12:39:59;;;;;;;7.97;1.83;;;;;;;18.90;54.94;101260.56;4872976;29;20104;-96
2021/11/08 12:42:36;;;;;;;8.05;2.05;;;;;;;18.91;54.60;101258.75;4863261;29;20104;-96
2021/11/08 12:45:13;;;;;;;10.55;2.15;;;;;;;18.61;56.13;101257.81;4864539;29;20064;-95
2021/11/08 12:47:39;;;;;;;9.88;2.40;;;;;;;18.78;55.62;101251.00;4894335;29;20048;-94
2021/11/08 12:50:06;;;;;;;9.07;2.92;;;;;;;18.90;55.63;101249.91;4897309;29;20021;-94
2021/11/08 12:52:38;;;;;;;9.80;1.80;;;;;;;18.89;55.45;101247.38;4879094;29;20290;-94
2021/11/08 12:55:06;;;;;;;11.10;2.20;;;;;;;18.77;55.89;101244.81;4879486;29;20073;-93
2021/11/08 12:57:33;;;;;;;8.77;2.88;;;;;;;18.62;56.66;101255.00;4878239;29;20040;-93
2021/11/08 13:00:00;;;;;;;10.02;2.60;;;;;;;18.81;55.94;101240.94;4876981;29;20042;-94
2021/11/08 13:02:40;;;;;;;6.75;1.88;;;;;;;18.66;56.73;101241.44;4873366;29;20026;-95
2021/11/08 13:05:08;;;;;;;10.48;1.80;;;;;;;18.53;57.05;101239.03;4856948;29;20125;-95
2021/11/08 13:07:38;;;;;;;8.80;2.38;;;;;;;18.75;56.27;101237.94;4860885;29;20030;-96
2021/11/08 13:10:25;;;;;;;9.82;2.05;;;;;;;18.75;56.36;101230.81;4862860;29;20414;-95
2021/11/08 13:12:53;;;;;;;4.60;1.80;;;;;;;18.66;56.86;101230.78;4876955;29;20036;-96
2021/11/08 13:15:25;;;;;;;7.55;2.22;;;;;;;18.73;56.73;101231.94;4873558;29;20090;-95
2021/11/08 13:18:10;;;;;;;9.27;2.72;;;;;;;18.69;56.93;101219.88;4863272;29;20034;-96
2021/11/08 13:20:42;;;;;;;5.63;1.67;;;;;;;18.61;56.95;101231.22;4861949;29;20036;-96
2021/11/08 13:23:09;;;;;;;;;;;;;;;18.61;56.93;101234.69;4862790;29;20090;-96
2021/11/08 13:25:41;;;;;;;10.88;2.38;;;;;;;18.51;57.43;101231.19;4864011;29;19912;-96